Empire, Colorado
Current Conditions -  °F | °C
As of 7:30 AM on Friday 24 Oct 2014 (Local Time) from K0CO Reporting Station
Clear Clear  
Wind Chill: 22°   Ceiling: Unl
Heat Index: 34°   Visibility: 10mi
Dew Point: 32°   Wind: 23mph
Humidity: 93%   Direction: 280°W
Pressure: 30.58"   Gusts: 43mph
Location:  39.76°N, 105.68°W
Report Text: K0CO 241330Z AUTO 28020G37KT 10SM CLR 01/00 A3058 RMK AO2
Loading
Personal Weather Stations






























Interactive Weather Map New forecast layout! Learn more

10-Day Weather Forecast

Advertisements
Track Severe Weather on mobile